Elizabeth Mc Allister — WDB7652 — position and weather

sailwx.info

Track history (hours):
 
Tides and Currents Weather Stations Pressure Air Temp Water Temp Dewpoint Dewpoint Depression Visibility Wind Speed Wind Dir Waves Ship Positions

Elizabeth Mc Allister

Owner: MC ALLISTER TOWING & TRANSPORTATION INC, NEW YORK, NY. More information available from US FCC via Universal Licensing System and Coast Guard Vessel Documentation Center.

Last reported at 2016-Sep-27 00:12 UTC. Time now 2016-Sep-27 10:27 UTC.
Position N 40°33' W 074°15'.

Length 31 m.

Type: Tug. MMSI: 362751376.

Date/timePositionNaut miles runAvg speedWind from/ knotsBaromVisibWave heightAir tempDewpointWater temp
2016-Sep-27 00:12N 40°33' W 074°15'8 2.3
2016-Sep-26 20:33N 40°40' W 074°09'1 1.0
2016-Sep-26 19:33N 40°40' W 074°08'2 0.6
2016-Sep-26 15:32N 40°38' W 074°10'0 0.0
2016-Sep-26 13:33N 40°38' W 074°10'0 0.0
2016-Sep-26 11:33N 40°38' W 074°10'0 0.0
2016-Sep-26 08:33N 40°38' W 074°10'2 0.3
2016-Sep-26 02:33N 40°37' W 074°12'2 2.1
2016-Sep-26 01:33N 40°38' W 074°10'2 2.1
2016-Sep-26 00:33N 40°40' W 074°08'2 0.7
2016-Sep-25 21:33N 40°38' W 074°10'0 0.0
2016-Sep-25 17:33N 40°38' W 074°10'0 0.0
2016-Sep-25 16:33N 40°38' W 074°10'0 0.0
2016-Sep-25 15:33N 40°38' W 074°10'0 0.0
2016-Sep-25 14:33N 40°38' W 074°10'4 2.0
2016-Sep-25 12:33N 40°35' W 074°13'4 3.9
2016-Sep-25 11:33N 40°39' W 074°11'6 5.9
2016-Sep-25 10:33N 40°39' W 074°03'5 4.7
2016-Sep-25 09:33N 40°39' W 074°09'4 2.2
2016-Sep-25 07:33N 40°35' W 074°13'4 1.3
2016-Sep-25 04:33N 40°38' W 074°10'0 0.0
2016-Sep-25 00:33N 40°38' W 074°10'1 0.7
2016-Sep-24 22:33N 40°40' W 074°09'2 2.1
2016-Sep-24 21:33N 40°42' W 074°08'3 1.7
2016-Sep-24 19:33N 40°38' W 074°10'0 0.0
2016-Sep-24 18:33N 40°38' W 074°10'2 2.5
2016-Sep-24 17:33N 40°39' W 074°07'0 0.0
2016-Sep-24 16:33N 40°39' W 074°07'0 0.1
2016-Sep-24 14:33N 40°39' W 074°07'2 1.0
2016-Sep-24 12:33N 40°40' W 074°08'2 1.2
2016-Sep-24 10:33N 40°39' W 074°06'2 1.6
2016-Sep-24 09:33N 40°40' W 074°04'3 0.5
2016-Sep-24 03:33N 40°40' W 074°08'0 0.2
2016-Sep-24 02:33N 40°40' W 074°08'2 1.9
2016-Sep-24 01:33N 40°38' W 074°10'0 0.0
2016-Sep-24 00:33N 40°38' W 074°10'0 0.0
2016-Sep-23 19:33N 40°38' W 074°10'0 0.0
2016-Sep-23 17:33N 40°38' W 074°10'0 0.0
2016-Sep-23 16:33N 40°38' W 074°10'0 0.0
2016-Sep-23 15:33N 40°38' W 074°10'0 0.0
2016-Sep-23 13:33N 40°38' W 074°10'0 0.0
2016-Sep-23 09:33N 40°38' W 074°10'0 0.0
2016-Sep-23 06:33N 40°38' W 074°10'0 0.0
2016-Sep-23 04:33N 40°38' W 074°10'0 0.0
2016-Sep-23 03:33N 40°38' W 074°10'5 4.9
2016-Sep-23 02:31N 40°34' W 074°13'2 1.7
2016-Sep-23 01:19N 40°33' W 074°15'0 0.0
2016-Sep-22 23:17N 40°33' W 074°15'10 3.5
2016-Sep-22 20:33N 40°39' W 074°05'9 1.1
2016-Sep-22 12:14N 40°33' W 074°14'6 0.8
2016-Sep-22 04:33N 40°38' W 074°10'0 0.0
2016-Sep-20 13:20N 40°38' W 074°10'0 0.0
2016-Sep-20 10:33N 40°38' W 074°10'0 0.0
2016-Sep-20 08:33N 40°38' W 074°10'0 0.0
2016-Sep-20 07:33N 40°38' W 074°10'0 0.0
2016-Sep-20 06:33N 40°38' W 074°10'0 0.0
2016-Sep-20 02:33N 40°38' W 074°10'2 0.7
2016-Sep-19 23:33N 40°40' W 074°08'2 0.6
2016-Sep-19 19:33N 40°39' W 074°06'  
Track history (hours):
 
Tides and Currents Weather Stations Pressure Air Temp Water Temp Dewpoint Dewpoint Depression Visibility Wind Speed Wind Dir Waves Ship Positions

Elizabeth Mc Allister

Owner: MC ALLISTER TOWING & TRANSPORTATION INC, NEW YORK, NY. More information available from US FCC via Universal Licensing System and Coast Guard Vessel Documentation Center.

Last reported at 2016-Sep-27 00:12 UTC. Time now 2016-Sep-27 10:27 UTC.
Position N 40°33' W 074°15'.

Length 31 m.

Type: Tug. MMSI: 362751376.

Date/timePositionNaut miles runAvg speedWind from/ knotsBaromVisibWave heightAir tempDewpointWater temp
2016-Sep-27 00:12N 40°33' W 074°15'8 2.3
2016-Sep-26 20:33N 40°40' W 074°09'1 1.0
2016-Sep-26 19:33N 40°40' W 074°08'2 0.6
2016-Sep-26 15:32N 40°38' W 074°10'0 0.0
2016-Sep-26 13:33N 40°38' W 074°10'0 0.0
2016-Sep-26 11:33N 40°38' W 074°10'0 0.0
2016-Sep-26 08:33N 40°38' W 074°10'2 0.3
2016-Sep-26 02:33N 40°37' W 074°12'2 2.1
2016-Sep-26 01:33N 40°38' W 074°10'2 2.1
2016-Sep-26 00:33N 40°40' W 074°08'2 0.7
2016-Sep-25 21:33N 40°38' W 074°10'0 0.0
2016-Sep-25 17:33N 40°38' W 074°10'0 0.0
2016-Sep-25 16:33N 40°38' W 074°10'0 0.0
2016-Sep-25 15:33N 40°38' W 074°10'0 0.0
2016-Sep-25 14:33N 40°38' W 074°10'4 2.0
2016-Sep-25 12:33N 40°35' W 074°13'4 3.9
2016-Sep-25 11:33N 40°39' W 074°11'6 5.9
2016-Sep-25 10:33N 40°39' W 074°03'5 4.7
2016-Sep-25 09:33N 40°39' W 074°09'4 2.2
2016-Sep-25 07:33N 40°35' W 074°13'4 1.3
2016-Sep-25 04:33N 40°38' W 074°10'0 0.0
2016-Sep-25 00:33N 40°38' W 074°10'1 0.7
2016-Sep-24 22:33N 40°40' W 074°09'2 2.1
2016-Sep-24 21:33N 40°42' W 074°08'3 1.7
2016-Sep-24 19:33N 40°38' W 074°10'0 0.0
2016-Sep-24 18:33N 40°38' W 074°10'2 2.5
2016-Sep-24 17:33N 40°39' W 074°07'0 0.0
2016-Sep-24 16:33N 40°39' W 074°07'0 0.1
2016-Sep-24 14:33N 40°39' W 074°07'2 1.0
2016-Sep-24 12:33N 40°40' W 074°08'2 1.2
2016-Sep-24 10:33N 40°39' W 074°06'2 1.6
2016-Sep-24 09:33N 40°40' W 074°04'3 0.5
2016-Sep-24 03:33N 40°40' W 074°08'0 0.2
2016-Sep-24 02:33N 40°40' W 074°08'2 1.9
2016-Sep-24 01:33N 40°38' W 074°10'0 0.0
2016-Sep-24 00:33N 40°38' W 074°10'0 0.0
2016-Sep-23 19:33N 40°38' W 074°10'0 0.0
2016-Sep-23 17:33N 40°38' W 074°10'0 0.0
2016-Sep-23 16:33N 40°38' W 074°10'0 0.0
2016-Sep-23 15:33N 40°38' W 074°10'0 0.0
2016-Sep-23 13:33N 40°38' W 074°10'0 0.0
2016-Sep-23 09:33N 40°38' W 074°10'0 0.0
2016-Sep-23 06:33N 40°38' W 074°10'0 0.0
2016-Sep-23 04:33N 40°38' W 074°10'0 0.0
2016-Sep-23 03:33N 40°38' W 074°10'5 4.9
2016-Sep-23 02:31N 40°34' W 074°13'2 1.7
2016-Sep-23 01:19N 40°33' W 074°15'0 0.0
2016-Sep-22 23:17N 40°33' W 074°15'10 3.5
2016-Sep-22 20:33N 40°39' W 074°05'9 1.1
2016-Sep-22 12:14N 40°33' W 074°14'6 0.8
2016-Sep-22 04:33N 40°38' W 074°10'0 0.0
2016-Sep-20 13:20N 40°38' W 074°10'0 0.0
2016-Sep-20 10:33N 40°38' W 074°10'0 0.0
2016-Sep-20 08:33N 40°38' W 074°10'0 0.0
2016-Sep-20 07:33N 40°38' W 074°10'0 0.0
2016-Sep-20 06:33N 40°38' W 074°10'0 0.0
2016-Sep-20 02:33N 40°38' W 074°10'2 0.7
2016-Sep-19 23:33N 40°40' W 074°08'2 0.6
2016-Sep-19 19:33N 40°39' W 074°06'  

Dump ship's entire track history